Time;durP1;ratioP1;P1;durP2;ratioP2;P2;SDS_P1;SDS_P2;PMS_P1;PMS_P2;Temp;Humidity;BMP_temperature;BMP_pressure;BME280_temperature;BME280_humidity;BME280_pressure;Samples;Min_cycle;Max_cycle;Signal;HPM_P1;HPM_P2
2023/06/10 00:01:08;;;;;;;6.70;6.10;;;;;;;19.03;51.29;98593.44;4954550;28;43212;-75
2023/06/10 00:03:36;;;;;;;6.27;5.73;;;;;;;18.97;51.18;98597.59;4954572;28;39911;-74
2023/06/10 00:06:03;;;;;;;5.93;5.47;;;;;;;18.96;51.38;98600.41;4954583;28;41785;-75
2023/06/10 00:08:33;;;;;;;6.03;5.53;;;;;;;18.87;51.41;98585.25;4937079;28;41690;-75
2023/06/10 00:11:00;;;;;;;5.73;5.33;;;;;;;18.75;51.70;98579.28;4954442;28;43185;-75
2023/06/10 00:13:28;;;;;;;7.20;6.33;;;;;;;18.86;52.30;98597.81;4937189;28;40124;-75
2023/06/10 00:15:56;;;;;;;8.23;7.30;;;;;;;18.75;52.14;98583.81;4921060;28;43510;-75
2023/06/10 00:18:26;;;;;;;7.10;6.40;;;;;;;18.77;52.28;98589.88;4953989;28;43757;-75
2023/06/10 00:20:54;;;;;;;6.07;5.57;;;;;;;18.72;52.25;98587.63;4936116;28;42928;-75
2023/06/10 00:23:24;;;;;;;6.70;6.10;;;;;;;18.67;52.60;98588.09;4920819;28;40035;-75
2023/06/10 00:25:52;;;;;;;6.57;5.97;;;;;;;18.63;52.75;98593.91;4936903;28;43162;-75
2023/06/10 00:28:20;;;;;;;5.97;5.47;;;;;;;18.59;52.52;98589.84;4936425;28;41739;-75
2023/06/10 00:30:48;;;;;;;5.93;5.47;;;;;;;18.56;52.46;98592.78;4937358;28;42710;-75
2023/06/10 00:33:17;;;;;;;6.10;5.50;;;;;;;18.53;52.94;98593.13;4921756;28;40017;-75
2023/06/10 00:35:44;;;;;;;6.10;5.47;;;;;;;18.49;52.83;98599.78;4936876;28;41570;-75
2023/06/10 00:38:14;;;;;;;7.37;5.67;;;;;;;18.48;53.26;98595.41;4937871;28;42755;-75
2023/06/10 00:40:44;;;;;;;6.20;5.70;;;;;;;18.40;53.21;98588.13;4921916;28;42072;-75
2023/06/10 00:43:12;;;;;;;6.40;5.80;;;;;;;18.42;53.09;98599.53;4937800;28;40171;-75
2023/06/10 00:45:39;;;;;;;6.60;6.00;;;;;;;18.39;53.18;98602.53;4937459;28;40943;-74
2023/06/10 00:48:08;;;;;;;6.40;5.90;;;;;;;18.34;53.56;98593.25;4954801;28;42546;-75
2023/06/10 00:50:39;;;;;;;6.60;6.00;;;;;;;18.31;53.60;98594.38;4937406;28;42480;-75
2023/06/10 00:53:07;;;;;;;6.40;5.90;;;;;;;18.29;53.63;98602.59;4921097;28;39742;-75
2023/06/10 00:55:35;;;;;;;6.63;6.03;;;;;;;18.25;53.72;98592.31;4936327;28;41106;-75
2023/06/10 00:58:04;;;;;;;7.00;6.40;;;;;;;18.21;54.28;98594.44;4953718;28;42779;-75
2023/06/10 01:00:33;;;;;;;7.07;6.43;;;;;;;18.18;54.08;98600.09;4920382;28;41423;-75
2023/06/10 01:03:02;;;;;;;7.03;6.43;;;;;;;18.14;54.40;98593.38;4936423;28;40011;-75
2023/06/10 01:09:33;;;;;;;5.97;5.47;;;;;;;18.08;54.41;98593.97;4953532;28;42753;-75
2023/06/10 01:12:08;;;;;;;7.00;6.40;;;;;;;18.02;54.75;98589.22;4950560;28;42443;-74
2023/06/10 01:14:36;;;;;;;5.80;5.30;;;;;;;18.04;54.95;98587.22;4933329;28;41254;-75
2023/06/10 01:17:05;;;;;;;6.50;6.00;;;;;;;18.02;55.11;98596.41;4936142;28;42676;-74
2023/06/10 01:19:33;;;;;;;5.27;4.87;;;;;;;17.98;55.08;98593.16;4935976;28;42786;-74
2023/06/10 01:22:03;;;;;;;6.17;5.67;;;;;;;17.95;55.44;98596.13;4935724;28;42177;-74
2023/06/10 01:24:34;;;;;;;7.50;6.87;;;;;;;17.92;55.35;98601.81;4936201;28;40039;-75
2023/06/10 01:27:04;;;;;;;6.43;5.83;;;;;;;17.83;55.52;98595.50;4935993;28;41494;-75
2023/06/10 01:29:37;;;;;;;5.70;5.30;;;;;;;17.83;55.41;98600.84;4936341;28;43147;-75
2023/06/10 01:32:11;;;;;;;6.80;6.10;;;;;;;17.79;55.69;98599.47;4920684;28;42251;-75
2023/06/10 01:34:43;;;;;;;6.00;5.50;;;;;;;17.69;55.76;98587.09;4951298;28;40017;-75
2023/06/10 01:37:15;;;;;;;6.17;5.57;;;;;;;17.73;55.86;98605.41;4933678;28;42535;-75
2023/06/10 01:39:44;;;;;;;7.10;6.40;;;;;;;17.71;56.00;98593.16;4951148;28;43335;-74
2023/06/10 01:42:13;;;;;;;6.63;5.97;;;;;;;17.68;56.44;98599.63;4936734;28;43054;-75
2023/06/10 01:44:41;;;;;;;6.20;5.70;;;;;;;17.66;56.44;98592.75;4936657;28;40909;-75
2023/06/10 01:47:10;;;;;;;6.67;6.07;;;;;;;17.65;56.27;98596.44;4920424;28;40944;-75
2023/06/10 01:49:37;;;;;;;6.80;6.20;;;;;;;17.62;56.15;98596.69;4920713;28;41776;-74
2023/06/10 01:52:06;;;;;;;6.70;6.10;;;;;;;17.40;56.65;98569.28;4920409;28;41217;-74
2023/06/10 01:54:36;;;;;;;6.60;6.00;;;;;;;17.56;56.45;98600.78;4920605;28;38875;-74
2023/06/10 01:57:06;;;;;;;6.40;5.80;;;;;;;17.50;56.61;98594.19;4920622;28;40716;-75
2023/06/10 01:59:33;;;;;;;6.63;6.03;;;;;;;17.47;56.75;98599.81;4935038;28;44315;-75
2023/06/10 02:02:01;;;;;;;7.27;6.67;;;;;;;17.45;56.84;98596.44;4934977;28;43212;-77
2023/06/10 02:04:29;;;;;;;6.20;5.70;;;;;;;17.43;56.83;98598.41;4935517;28;41893;-75
2023/06/10 02:06:56;;;;;;;6.73;6.20;;;;;;;17.40;57.56;98598.72;4935521;28;41570;-75
2023/06/10 02:09:26;;;;;;;7.20;6.60;;;;;;;17.36;57.75;98599.16;4935372;28;43701;-75
2023/06/10 02:11:55;;;;;;;6.50;6.00;;;;;;;17.25;57.75;98584.09;4919555;28;42322;-75
2023/06/10 02:14:23;;;;;;;6.93;6.23;;;;;;;17.31;57.82;98593.41;4919243;28;40062;-74
2023/06/10 02:16:56;;;;;;;6.87;6.27;;;;;;;17.27;57.63;98611.59;4919560;28;42086;-75
2023/06/10 02:19:25;;;;;;;6.47;5.87;;;;;;;17.20;57.79;98603.25;4935217;28;42741;-75
2023/06/10 02:21:52;;;;;;;6.73;6.17;;;;;;;17.19;57.62;98611.44;4919172;28;42189;-75
2023/06/10 02:24:20;;;;;;;6.53;5.77;;;;;;;17.17;58.13;98613.44;4918913;28;40193;-74
2023/06/10 02:26:48;;;;;;;7.63;6.93;;;;;;;17.10;57.88;98601.59;4934857;28;41979;-75
2023/06/10 02:29:17;;;;;;;7.10;6.40;;;;;;;17.10;58.05;98606.94;4934916;28;43567;-75
2023/06/10 02:31:45;;;;;;;7.13;6.47;;;;;;;17.07;58.08;98612.56;4953278;28;43017;-75
2023/06/10 02:34:13;;;;;;;7.47;6.87;;;;;;;17.03;58.29;98606.69;4919880;28;38898;-74
2023/06/10 02:36:41;;;;;;;6.17;5.70;;;;;;;17.00;58.39;98608.78;4936022;28;41608;-75
2023/06/10 02:39:09;;;;;;;6.13;5.60;;;;;;;16.96;58.37;98613.56;4935678;28;43593;-75
2023/06/10 02:41:37;;;;;;;6.50;6.00;;;;;;;16.92;58.35;98614.03;4935983;28;42504;-74
2023/06/10 02:44:05;;;;;;;6.63;6.03;;;;;;;16.88;58.70;98616.97;4935598;28;40883;-74
2023/06/10 02:46:34;;;;;;;6.40;5.83;;;;;;;16.86;58.71;98626.97;4953200;28;41725;-74
2023/06/10 02:49:04;;;;;;;6.33;5.83;;;;;;;16.84;59.05;98620.91;4935484;28;43622;-74
2023/06/10 02:51:32;;;;;;;6.73;6.13;;;;;;;16.82;58.82;98625.53;4935707;28;43103;-75
2023/06/10 02:54:02;;;;;;;6.63;6.03;;;;;;;16.73;58.89;98617.53;4935865;28;41917;-74
2023/06/10 02:56:31;;;;;;;7.50;6.80;;;;;;;16.76;59.37;98626.13;4935772;28;42505;-75
2023/06/10 02:59:02;;;;;;;7.40;6.60;;;;;;;16.74;59.33;98622.75;4934114;28;42784;-74
2023/06/10 03:01:32;;;;;;;7.97;6.90;;;;;;;16.71;59.62;98623.00;4918031;28;41923;-74
2023/06/10 03:04:09;;;;;;;7.13;6.50;;;;;;;16.69;59.76;98624.97;4918552;28;40002;-75
2023/06/10 03:06:38;;;;;;;10.70;7.87;;;;;;;16.67;59.87;98621.63;4918663;28;40559;-74
2023/06/10 03:09:16;;;;;;;8.43;7.63;;;;;;;16.64;59.81;98616.53;4918591;28;42875;-75
2023/06/10 03:11:46;;;;;;;7.43;6.67;;;;;;;16.63;60.15;98614.00;4934999;28;42813;-74
2023/06/10 03:14:15;;;;;;;6.67;6.07;;;;;;;16.55;60.03;98606.66;4918480;28;39937;-74
2023/06/10 03:16:44;;;;;;;7.50;6.90;;;;;;;16.57;60.31;98615.38;4918811;28;41250;-75
2023/06/10 03:19:13;;;;;;;6.40;5.80;;;;;;;16.54;60.16;98615.66;4918498;28;42866;-75
2023/06/10 03:21:46;;;;;;;6.77;6.10;;;;;;;16.52;60.42;98617.63;4918108;28;42648;-74
2023/06/10 03:24:16;;;;;;;6.80;6.20;;;;;;;16.52;60.15;98617.63;4918465;28;39130;-74
2023/06/10 03:26:44;;;;;;;6.90;6.30;;;;;;;16.50;60.36;98620.44;4918652;28;40717;-74
2023/06/10 03:29:12;;;;;;;6.23;5.73;;;;;;;16.51;60.66;98622.13;4934534;28;42816;-74
2023/06/10 03:31:40;;;;;;;6.50;5.90;;;;;;;16.50;60.65;98624.94;4935618;28;42363;-75
2023/06/10 03:34:09;;;;;;;6.40;5.80;;;;;;;16.50;60.78;98619.59;4935529;28;39774;-75
2023/06/10 03:36:42;;;;;;;6.43;5.93;;;;;;;16.39;60.47;98595.66;4935480;28;42580;-75
2023/06/10 03:39:11;;;;;;;7.17;6.47;;;;;;;16.50;60.38;98619.59;4950997;28;41694;-75
2023/06/10 03:41:39;;;;;;;7.17;6.57;;;;;;;16.53;60.69;98622.00;4952360;28;42481;-74
2023/06/10 03:44:08;;;;;;;6.50;5.90;;;;;;;16.55;60.78;98630.72;4917729;28;40414;-75
2023/06/10 03:46:36;;;;;;;8.27;7.47;;;;;;;16.58;61.76;98627.75;4918567;28;41827;-75
2023/06/10 03:49:04;;;;;;;6.17;5.60;;;;;;;16.63;61.09;98630.91;4917985;28;41900;-75
2023/06/10 03:51:35;;;;;;;7.73;7.07;;;;;;;16.67;61.07;98631.47;4918180;28;42583;-75
2023/06/10 03:54:05;;;;;;;8.03;7.33;;;;;;;16.68;61.29;98634.00;4934232;28;39944;-74
2023/06/10 03:56:33;;;;;;;6.67;6.17;;;;;;;16.68;61.12;98623.31;4918453;28;40627;-73
2023/06/10 03:59:01;;;;;;;6.83;6.23;;;;;;;16.79;61.23;98647.25;4934060;28;42827;-73
2023/06/10 04:01:29;;;;;;;7.40;6.67;;;;;;;16.83;61.16;98648.63;4934258;28;43286;-74
2023/06/10 04:03:57;;;;;;;6.93;6.30;;;;;;;16.84;60.98;98639.63;4951399;28;39941;-75
2023/06/10 04:06:25;;;;;;;6.93;6.33;;;;;;;16.93;60.81;98632.59;4933856;28;40851;-74
2023/06/10 04:08:55;;;;;;;6.50;6.00;;;;;;;17.01;60.92;98645.28;4917537;28;42166;-73
2023/06/10 04:11:25;;;;;;;6.73;6.17;;;;;;;17.10;60.59;98644.41;4954511;28;42262;-75
2023/06/10 04:13:53;;;;;;;7.87;7.10;;;;;;;17.16;60.62;98644.69;4921261;28;38877;-74
2023/06/10 04:16:21;;;;;;;6.87;6.37;;;;;;;17.13;61.29;98625.41;4937335;28;41812;-74
2023/06/10 04:18:50;;;;;;;8.00;7.20;;;;;;;17.27;61.10;98642.84;4920960;28;42712;-74
2023/06/10 04:21:19;;;;;;;7.37;6.77;;;;;;;17.20;60.81;98629.19;4936678;28;42342;-75
2023/06/10 04:23:47;;;;;;;8.30;7.37;;;;;;;17.39;60.68;98649.72;4937145;28;40878;-75
2023/06/10 04:26:15;;;;;;;7.17;6.57;;;;;;;17.48;60.61;98647.03;4921394;28;41725;-75
2023/06/10 04:28:45;;;;;;;8.03;7.33;;;;;;;17.57;60.48;98651.50;4936770;28;42779;-74
2023/06/10 04:31:14;;;;;;;7.03;6.43;;;;;;;17.67;60.77;98645.34;4938061;28;41989;-74
2023/06/10 04:33:42;;;;;;;7.03;6.47;;;;;;;17.77;60.26;98651.50;4922111;28;40189;-74
2023/06/10 04:36:11;;;;;;;7.13;6.53;;;;;;;17.85;60.59;98656.97;4937950;28;41727;-74
2023/06/10 04:38:40;;;;;;;6.60;6.10;;;;;;;17.94;60.70;98661.44;4937747;28;43657;-74
2023/06/10 04:41:09;;;;;;;8.13;7.43;;;;;;;18.03;60.37;98665.94;4906685;28;42459;-75
2023/06/10 04:43:38;;;;;;;7.20;6.60;;;;;;;18.12;60.13;98665.03;4937777;28;40040;-74
2023/06/10 04:46:08;;;;;;;9.77;8.77;;;;;;;18.23;60.55;98666.69;4937881;28;41786;-74
2023/06/10 04:48:37;;;;;;;8.43;7.63;;;;;;;18.33;60.56;98661.25;4937158;28;42594;-73
2023/06/10 04:51:05;;;;;;;7.67;6.77;;;;;;;18.43;60.21;98662.88;4937551;28;42359;-74
2023/06/10 04:53:32;;;;;;;8.80;8.10;;;;;;;18.51;60.18;98648.75;4937587;28;40000;-75
2023/06/10 04:56:00;;;;;;;6.90;6.30;;;;;;;18.69;59.99;98662.19;4921767;28;41963;-75
2023/06/10 04:58:28;;;;;;;6.80;6.30;;;;;;;18.80;59.82;98662.81;4921251;28;41776;-74
2023/06/10 05:00:56;;;;;;;7.17;6.57;;;;;;;18.91;59.42;98668.00;4935763;28;42619;-74
2023/06/10 05:03:25;;;;;;;7.50;6.80;;;;;;;19.01;59.88;98662.53;4936211;28;39953;-75
2023/06/10 05:05:52;;;;;;;7.60;6.77;;;;;;;19.13;59.26;98665.81;4936249;28;40551;-74
2023/06/10 05:08:20;;;;;;;8.83;8.13;;;;;;;19.22;59.46;98664.91;4920217;28;42684;-75
2023/06/10 05:10:48;;;;;;;7.23;6.63;;;;;;;19.32;59.24;98660.28;4936311;28;42396;-75
2023/06/10 05:13:16;;;;;;;7.67;7.07;;;;;;;19.43;58.93;98665.38;4936082;28;40025;-75
2023/06/10 05:15:44;;;;;;;8.10;7.40;;;;;;;19.51;58.80;98654.75;4936186;28;41708;-75
2023/06/10 05:18:12;;;;;;;9.13;8.33;;;;;;;19.57;58.78;98650.59;4953511;28;42812;-74
2023/06/10 05:20:41;;;;;;;8.33;7.63;;;;;;;19.76;59.23;98652.22;4934918;28;41307;-75
2023/06/10 05:23:09;;;;;;;7.83;7.13;;;;;;;19.80;58.85;98643.66;4936257;28;40896;-75
2023/06/10 05:25:36;;;;;;;8.30;7.60;;;;;;;19.96;58.64;98653.69;4953382;28;41764;-74
2023/06/10 05:28:06;;;;;;;8.20;7.43;;;;;;;20.05;58.22;98652.72;4935888;28;41960;-74
2023/06/10 05:30:34;;;;;;;9.23;8.50;;;;;;;20.16;57.65;98668.56;4953168;28;42047;-73
2023/06/10 05:33:01;;;;;;;9.00;8.10;;;;;;;20.24;57.55;98667.78;4920089;28;38968;-74
2023/06/10 05:35:29;;;;;;;8.80;7.90;;;;;;;20.34;57.63;98669.31;4920093;28;41865;-75
2023/06/10 05:37:58;;;;;;;8.37;7.57;;;;;;;20.46;57.16;98666.38;4936157;28;43761;-75
2023/06/10 05:40:25;;;;;;;7.90;7.20;;;;;;;20.58;56.77;98670.44;4937313;28;43195;-75
2023/06/10 05:42:53;;;;;;;7.73;6.93;;;;;;;20.68;56.70;98671.13;4954273;28;41037;-74
2023/06/10 05:45:21;;;;;;;9.00;8.20;;;;;;;20.81;56.70;98674.19;4953792;28;41729;-74
2023/06/10 05:47:48;;;;;;;7.30;6.70;;;;;;;20.90;56.85;98670.50;4936788;28;43679;-75
2023/06/10 05:50:16;;;;;;;7.40;6.70;;;;;;;21.09;56.75;98674.75;4954413;28;42875;-74
2023/06/10 05:52:44;;;;;;;7.97;7.17;;;;;;;21.21;56.52;98678.84;4953933;28;40854;-74
2023/06/10 05:55:13;;;;;;;7.53;6.83;;;;;;;21.40;55.97;98685.72;4921138;28;41075;-75
2023/06/10 05:57:42;;;;;;;7.77;7.07;;;;;;;21.61;54.70;98694.16;4920668;28;42777;-74
2023/06/10 06:00:11;;;;;;;8.80;7.80;;;;;;;21.82;54.59;98688.22;4934646;28;42250;-74
2023/06/10 06:02:42;;;;;;;7.17;6.30;;;;;;;21.92;53.42;98691.56;4951028;28;39884;-75
2023/06/10 06:05:10;;;;;;;7.10;6.50;;;;;;;22.06;53.64;98696.28;4935866;28;41579;-75
2023/06/10 06:07:37;;;;;;;7.27;6.57;;;;;;;22.16;52.56;98690.69;4919350;28;41642;-75
2023/06/10 06:10:06;;;;;;;6.37;5.87;;;;;;;22.37;52.53;98696.38;4952837;28;42251;-75
2023/06/10 06:12:35;;;;;;;8.03;7.03;;;;;;;22.53;50.96;98709.78;4935617;28;40981;-75
2023/06/10 06:15:05;;;;;;;7.87;6.70;;;;;;;22.63;51.37;98704.16;4952842;28;41608;-75
2023/06/10 06:17:33;;;;;;;7.30;6.60;;;;;;;22.90;51.08;98717.22;4935337;28;42898;-75
2023/06/10 06:20:00;;;;;;;8.87;7.00;;;;;;;23.02;49.98;98725.78;4952705;28;42246;-74
2023/06/10 06:22:28;;;;;;;6.87;6.27;;;;;;;23.16;49.83;98724.16;4935254;28;40885;-74
2023/06/10 06:24:56;;;;;;;6.57;5.67;;;;;;;23.31;49.58;98729.66;4952823;28;42768;-75
2023/06/10 06:27:24;;;;;;;7.13;6.53;;;;;;;23.44;49.75;98721.78;4935123;28;42962;-74
2023/06/10 06:29:53;;;;;;;6.90;5.93;;;;;;;23.60;48.82;98724.41;4919876;28;41542;-75
2023/06/10 06:32:22;;;;;;;8.73;6.97;;;;;;;23.62;48.43;98711.50;4952468;28;39854;-74
2023/06/10 06:34:54;;;;;;;7.10;6.47;;;;;;;23.82;48.36;98731.63;4953184;28;41153;-74
2023/06/10 06:37:22;;;;;;;7.17;6.57;;;;;;;23.88;48.13;98719.22;4933554;28;42724;-74
2023/06/10 06:39:51;;;;;;;7.20;6.50;;;;;;;24.24;48.13;98724.78;4920096;28;41208;-74
2023/06/10 06:42:19;;;;;;;6.43;5.93;;;;;;;24.49;48.21;98714.53;4936050;28;40856;-74
2023/06/10 06:45:14;;;;;;;7.20;6.20;;;;;;;24.67;46.75;98723.94;4936045;28;42521;-75
2023/06/10 06:47:43;;;;;;;8.00;7.30;;;;;;;24.83;45.13;98727.50;4935810;28;42964;-74
2023/06/10 06:50:11;;;;;;;8.03;7.33;;;;;;;24.91;45.42;98741.75;4935926;28;41194;-75
2023/06/10 06:52:38;;;;;;;7.77;7.07;;;;;;;24.95;45.26;98739.53;4953117;28;40167;-74
2023/06/10 06:55:07;;;;;;;7.87;7.17;;;;;;;25.06;45.47;98739.03;4952644;28;41658;-74
2023/06/10 06:57:34;;;;;;;8.27;7.57;;;;;;;25.08;44.95;98739.69;4934101;28;42838;-75
2023/06/10 07:00:02;;;;;;;8.20;7.40;;;;;;;25.17;44.22;98749.38;4934620;28;40941;-75
2023/06/10 07:02:33;;;;;;;7.47;6.87;;;;;;;25.25;44.37;98743.84;4934721;28;41807;-75
2023/06/10 07:05:00;;;;;;;7.80;7.10;;;;;;;25.47;43.89;98746.56;4931978;28;41798;-74
2023/06/10 07:07:28;;;;;;;7.37;6.67;;;;;;;25.66;44.17;98745.94;4934682;28;43731;-75
2023/06/10 07:09:56;;;;;;;8.40;7.70;;;;;;;25.89;43.92;98745.72;4952271;28;42372;-75
2023/06/10 07:12:24;;;;;;;8.57;7.83;;;;;;;26.09;44.00;98741.28;4934968;28;38994;-75
2023/06/10 07:14:52;;;;;;;8.70;7.77;;;;;;;26.16;42.38;98746.78;4918768;28;42950;-75
2023/06/10 07:17:20;;;;;;;8.40;7.73;;;;;;;26.26;43.14;98741.84;4951732;28;43831;-74
2023/06/10 07:19:51;;;;;;;7.80;7.13;;;;;;;26.42;43.12;98750.53;4934848;28;42231;-75
2023/06/10 07:22:19;;;;;;;8.17;7.57;;;;;;;26.54;42.52;98744.53;4934086;28;39986;-74
2023/06/10 07:24:46;;;;;;;8.60;7.70;;;;;;;26.58;42.18;98749.34;4951752;28;41526;-74
2023/06/10 07:27:14;;;;;;;8.53;7.73;;;;;;;26.83;42.08;98764.13;4951560;28;42794;-75
2023/06/10 07:29:42;;;;;;;8.37;7.53;;;;;;;27.09;41.37;98757.16;4934585;28;42498;-75
2023/06/10 07:32:10;;;;;;;8.83;8.03;;;;;;;27.52;41.27;98758.53;4935020;28;39944;-74
2023/06/10 07:34:37;;;;;;;8.87;8.00;;;;;;;28.20;39.86;98774.75;4919566;28;42666;-75
2023/06/10 07:37:07;;;;;;;7.43;6.83;;;;;;;28.69;39.25;98763.34;4950187;28;42796;-75
2023/06/10 07:39:35;;;;;;;7.57;6.87;;;;;;;29.11;38.63;98777.47;4934968;28;42690;-75
2023/06/10 07:42:03;;;;;;;8.40;7.60;;;;;;;29.21;37.98;98772.41;4919484;28;40922;-75
2023/06/10 07:44:31;;;;;;;7.73;7.03;;;;;;;29.26;37.87;98765.25;4921076;28;41841;-75
2023/06/10 07:46:59;;;;;;;7.67;7.07;;;;;;;29.40;36.95;98778.84;4938800;28;44334;-74
2023/06/10 07:49:27;;;;;;;8.13;7.33;;;;;;;29.67;36.72;98782.25;4938159;28;42241;-74
2023/06/10 07:51:55;;;;;;;7.97;7.27;;;;;;;30.78;34.98;98780.50;4955627;28;41941;-75
2023/06/10 07:54:24;;;;;;;7.47;6.87;;;;;;;32.12;33.30;98793.00;4938188;28;41916;-75
2023/06/10 07:56:53;;;;;;;7.83;7.23;;;;;;;33.45;31.55;98797.69;4938276;28;43476;-75
2023/06/10 07:59:20;;;;;;;7.37;6.67;;;;;;;34.59;29.40;98812.94;4937831;28;42205;-75
2023/06/10 08:01:48;;;;;;;7.50;6.80;;;;;;;35.74;28.54;98810.28;4937843;28;39749;-76
2023/06/10 08:04:16;;;;;;;7.15;6.63;;;;;;;36.32;26.73;98826.91;4921946;28;40628;-75
2023/06/10 08:06:44;;;;;;;7.73;6.87;;;;;;;36.79;26.96;98820.66;4954830;28;43747;-75
2023/06/10 08:09:11;;;;;;;7.90;7.23;;;;;;;37.37;25.78;98822.34;4936064;28;42971;-75
2023/06/10 08:11:44;;;;;;;6.57;6.00;;;;;;;38.18;25.01;98830.03;4936927;28;38858;-76
2023/06/10 08:14:11;;;;;;;6.45;5.95;;;;;;;39.01;24.10;98832.50;4921002;28;41741;-75
2023/06/10 08:16:39;;;;;;;7.53;6.50;;;;;;;39.41;22.76;98840.69;4921154;28;41786;-75
2023/06/10 08:19:09;;;;;;;7.15;6.55;;;;;;;39.25;23.08;98833.50;4936888;28;43055;-76
2023/06/10 08:21:39;;;;;;;6.50;5.97;;;;;;;39.70;23.57;98834.44;4936803;28;40031;-75
2023/06/10 08:24:07;;;;;;;6.05;5.55;;;;;;;39.63;23.49;98825.59;4936653;28;41495;-76
2023/06/10 08:26:35;;;;;;;6.85;6.13;;;;;;;39.70;23.80;98801.16;4954154;28;42822;-76
2023/06/10 08:29:05;;;;;;;5.95;5.40;;;;;;;39.78;22.84;98826.34;4936122;28;41507;-76
2023/06/10 08:31:33;;;;;;;7.00;6.40;;;;;;;39.55;23.57;98815.13;4954110;28;40016;-76
2023/06/10 08:34:01;;;;;;;5.75;5.25;;;;;;;39.28;23.55;98813.56;4921443;28;41997;-76
2023/06/10 08:36:28;;;;;;;5.38;4.97;;;;;;;39.41;23.18;98818.53;4937579;28;42716;-77
2023/06/10 08:38:56;;;;;;;6.20;5.65;;;;;;;39.41;23.92;98812.13;4954389;28;42493;-76
2023/06/10 08:41:28;;;;;;;5.72;5.32;;;;;;;39.10;24.63;98803.91;4937666;28;41659;-76
2023/06/10 08:44:09;;;;;;;5.53;5.03;;;;;;;38.72;23.62;98818.41;4921548;28;41988;-75
2023/06/10 08:46:38;;;;;;;5.68;5.28;;;;;;;38.15;24.47;98804.88;4951747;28;42816;-75
2023/06/10 08:49:08;;;;;;;5.50;5.00;;;;;;;37.63;24.89;98805.88;4954365;28;43162;-75
2023/06/10 08:51:37;;;;;;;6.00;5.40;;;;;;;37.11;25.07;98803.13;4921407;28;38673;-76
2023/06/10 08:54:12;;;;;;;5.93;5.43;;;;;;;36.86;25.15;98803.84;4921148;28;42069;-75
2023/06/10 08:56:41;;;;;;;5.72;5.15;;;;;;;36.53;26.13;98796.72;4936669;28;43175;-74
2023/06/10 08:59:12;;;;;;;6.07;5.47;;;;;;;36.08;26.41;98794.41;4937161;28;42434;-74
2023/06/10 09:01:40;;;;;;;5.63;5.13;;;;;;;35.60;26.95;98785.94;4920598;28;38888;-75
2023/06/10 09:04:08;;;;;;;5.47;5.07;;;;;;;35.34;27.39;98777.66;4935543;28;41651;-75
2023/06/10 09:06:37;;;;;;;5.60;5.10;;;;;;;35.61;27.68;98772.97;4936229;28;42721;-75
2023/06/10 09:09:07;;;;;;;6.03;5.53;;;;;;;35.81;27.71;98773.22;4936319;28;42541;-75
2023/06/10 09:11:35;;;;;;;5.47;5.00;;;;;;;36.02;27.76;98768.69;4953712;28;39845;-75
2023/06/10 09:14:02;;;;;;;5.33;4.93;;;;;;;35.91;27.50;98773.31;4919960;28;40809;-75
2023/06/10 09:16:32;;;;;;;6.03;5.47;;;;;;;35.70;27.33;98754.88;4920010;28;42059;-75
2023/06/10 09:19:00;;;;;;;5.67;5.10;;;;;;;35.95;27.42;98766.19;4952999;28;43253;-75
2023/06/10 09:21:27;;;;;;;4.90;4.50;;;;;;;36.18;27.10;98772.44;4935998;28;39827;-76
2023/06/10 09:23:55;;;;;;;5.47;4.97;;;;;;;36.22;26.36;98776.34;4935965;28;41701;-75
2023/06/10 09:26:29;;;;;;;5.10;4.70;;;;;;;36.26;25.98;98774.72;4936164;28;43581;-76
2023/06/10 09:29:04;;;;;;;5.00;4.60;;;;;;;36.16;26.60;98758.06;4935117;28;42116;-76
2023/06/10 09:31:36;;;;;;;5.03;4.60;;;;;;;36.55;27.11;98753.97;4950275;28;40879;-75
2023/06/10 09:34:08;;;;;;;4.80;4.40;;;;;;;37.44;25.52;98768.78;4953511;28;41430;-75
2023/06/10 09:36:37;;;;;;;5.35;4.95;;;;;;;38.55;24.68;98781.91;4951075;28;44247;-75
2023/06/10 09:39:05;;;;;;;4.47;4.07;;;;;;;38.88;23.09;98794.28;4953610;28;42323;-76
2023/06/10 09:41:42;;;;;;;4.70;4.30;;;;;;;39.17;23.34;98781.47;4953950;28;41190;-76
2023/06/10 09:44:40;;;;;;;5.32;4.65;;;;;;;39.89;23.34;98779.16;4953783;28;42431;-73
2023/06/10 09:47:13;;;;;;;4.97;4.47;;;;;;;40.63;22.52;98781.56;4950762;28;43741;-74
2023/06/10 09:52:38;;;;;;;4.22;3.83;;;;;;;41.93;20.92;98794.09;4934213;28;40684;-73
2023/06/10 09:55:09;;;;;;;4.78;3.72;;;;;;;42.84;19.48;98800.13;4950883;28;42153;-73
2023/06/10 09:57:38;;;;;;;4.15;3.80;;;;;;;43.09;18.67;98798.78;4933045;28;42541;-74
2023/06/10 10:00:07;;;;;;;4.10;3.70;;;;;;;43.15;19.21;98797.53;4952613;28;43308;-74
2023/06/10 10:02:48;;;;;;;4.05;3.75;;;;;;;43.31;19.86;98786.91;4950018;28;40988;-74
2023/06/10 10:05:17;;;;;;;4.63;4.25;;;;;;;42.83;19.21;98800.44;4951367;28;42683;-74
2023/06/10 10:07:45;;;;;;;4.25;3.95;;;;;;;41.70;20.20;98791.41;4919524;28;41648;-74
2023/06/10 10:10:14;;;;;;;5.00;4.50;;;;;;;40.81;21.25;98783.63;4952952;28;42162;-76
2023/06/10 10:12:43;;;;;;;5.50;4.05;;;;;;;40.25;21.74;98763.88;4952963;28;41052;-78
2023/06/10 10:15:12;;;;;;;4.28;3.70;;;;;;;39.81;22.41;98752.84;4935115;28;42245;-77
2023/06/10 10:17:45;;;;;;;4.40;4.05;;;;;;;39.37;22.41;98748.09;4935431;28;42881;-78
2023/06/10 10:20:19;;;;;;;4.00;3.63;;;;;;;39.22;22.58;98764.81;4950751;28;42941;-78
2023/06/10 10:22:48;;;;;;;4.45;4.07;;;;;;;38.83;23.33;98761.03;4919989;28;40020;-79
2023/06/10 10:25:19;;;;;;;4.15;3.85;;;;;;;38.53;23.23;98760.03;4952406;28;42793;-76
2023/06/10 10:27:52;;;;;;;4.72;4.20;;;;;;;38.33;24.51;98746.22;4932567;28;43647;-75
2023/06/10 10:30:22;;;;;;;4.45;4.13;;;;;;;38.15;23.13;98757.84;4935147;28;42618;-76
2023/06/10 10:32:59;;;;;;;5.43;3.92;;;;;;;38.00;24.02;98736.50;4919752;28;39942;-78
2023/06/10 10:35:28;;;;;;;4.28;3.97;;;;;;;38.00;23.35;98742.88;4951735;28;42103;-76
2023/06/10 10:37:56;;;;;;;4.28;3.97;;;;;;;38.06;24.50;98739.00;4920579;28;41915;-77
2023/06/10 10:40:25;;;;;;;4.97;3.80;;;;;;;37.98;23.83;98749.78;4920035;28;41055;-76
2023/06/10 10:42:55;;;;;;;4.38;4.05;;;;;;;37.72;24.27;98732.34;4920488;28;39840;-77
2023/06/10 10:45:23;;;;;;;4.43;3.90;;;;;;;37.97;24.55;98735.13;4920058;28;40751;-74
2023/06/10 10:47:55;;;;;;;4.80;4.40;;;;;;;38.03;24.20;98738.72;4935992;28;43237;-76
2023/06/10 10:50:23;;;;;;;4.28;3.97;;;;;;;37.92;25.44;98724.09;4952142;28;42926;-76
2023/06/10 10:52:58;;;;;;;4.28;3.88;;;;;;;37.85;24.77;98737.34;4936569;28;40054;-76
2023/06/10 10:55:26;;;;;;;4.40;4.07;;;;;;;37.67;23.93;98738.72;4951828;28;41686;-78
2023/06/10 10:57:59;;;;;;;4.78;3.97;;;;;;;37.52;23.92;98724.00;4920626;28;41853;-75
2023/06/10 11:00:30;;;;;;;4.45;4.05;;;;;;;37.00;24.00;98713.91;4935367;28;42623;-75
2023/06/10 11:03:05;;;;;;;4.68;4.00;;;;;;;37.12;25.31;98711.72;4931408;28;40907;-77
2023/06/10 11:05:38;;;;;;;4.63;4.22;;;;;;;37.23;25.30;98716.22;4933906;28;41717;-76
2023/06/10 11:08:08;;;;;;;4.35;4.00;;;;;;;37.20;24.41;98714.00;4932115;28;43435;-77
2023/06/10 11:10:37;;;;;;;4.70;4.28;;;;;;;37.25;24.55;98705.72;4934522;28;41960;-76
2023/06/10 11:13:10;;;;;;;5.10;4.27;;;;;;;36.94;25.33;98698.44;4935000;28;41325;-76
2023/06/10 11:15:44;;;;;;;4.53;4.13;;;;;;;36.62;24.37;98707.63;4934027;28;42809;-76
2023/06/10 11:18:21;;;;;;;6.53;4.38;;;;;;;36.47;24.82;98726.88;4932333;28;42898;-78
2023/06/10 11:20:54;;;;;;;4.53;4.23;;;;;;;36.55;26.57;98708.97;4921904;28;41235;-74
2023/06/10 11:23:43;;;;;;;3.97;3.73;;;;;;;36.64;26.39;98705.44;4955492;28;39963;-75
2023/06/10 11:26:19;;;;;;;5.13;4.47;;;;;;;36.87;26.13;98714.41;4937905;28;41802;-74
2023/06/10 11:29:05;;;;;;;3.93;3.63;;;;;;;36.99;25.01;98715.00;4952383;28;42696;-76
2023/06/10 11:31:34;;;;;;;4.33;3.90;;;;;;;37.11;24.41;98710.06;4922079;28;42137;-76
2023/06/10 11:34:04;;;;;;;4.40;4.00;;;;;;;37.28;25.14;98699.66;4938982;28;39852;-76
2023/06/10 11:36:37;;;;;;;5.07;3.83;;;;;;;37.54;25.57;98699.69;4938648;28;41705;-76
2023/06/10 11:39:06;;;;;;;4.13;3.83;;;;;;;37.87;24.11;98707.47;4952939;28;42704;-77
2023/06/10 11:41:38;;;;;;;4.35;3.97;;;;;;;38.15;23.83;98708.06;4938913;28;43004;-76
2023/06/10 11:44:09;;;;;;;4.10;3.72;;;;;;;38.54;24.76;98697.22;4921589;28;39150;-75
2023/06/10 11:46:37;;;;;;;3.92;3.63;;;;;;;38.46;22.18;98709.63;4952594;28;41687;-76
2023/06/10 11:49:06;;;;;;;4.13;3.75;;;;;;;38.73;21.85;98721.22;4975051;28;42778;-76
2023/06/10 11:51:36;;;;;;;4.03;3.72;;;;;;;39.05;21.37;98723.63;4942176;28;43005;-75